createdAt,value
2019-03-15T00:01:34.548Z,113.27
2019-03-15T00:04:05.206Z,114.17
2019-03-15T00:06:35.569Z,111.60
2019-03-15T00:09:12.124Z,113.17
2019-03-15T00:11:42.514Z,112.77
2019-03-15T00:14:12.932Z,112.27
2019-03-15T00:16:43.679Z,112.10
2019-03-15T00:19:14.050Z,112.03
2019-03-15T00:21:44.483Z,111.13
2019-03-15T00:24:14.942Z,112.77
2019-03-15T00:26:45.714Z,112.43
2019-03-15T00:29:16.222Z,111.97
2019-03-15T00:31:46.893Z,112.07
2019-03-15T00:34:17.268Z,113.67
2019-03-15T00:36:47.681Z,111.93
2019-03-15T00:39:18.155Z,112.73
2019-03-15T00:41:48.546Z,111.50
2019-03-15T00:44:18.916Z,112.67
2019-03-15T00:46:49.354Z,113.60
2019-03-15T00:49:19.776Z,114.57
2019-03-15T00:51:50.268Z,113.37
2019-03-15T00:54:20.716Z,111.53
2019-03-15T00:56:51.101Z,111.97
2019-03-15T00:59:21.519Z,112.60
2019-03-15T01:01:52.006Z,111.50
2019-03-15T01:04:22.528Z,113.17
2019-03-15T01:06:52.960Z,111.30
2019-03-15T01:09:23.335Z,110.73
2019-03-15T01:11:54.077Z,110.63
2019-03-15T01:14:24.453Z,111.67
2019-03-15T01:16:54.968Z,110.80
2019-03-15T01:19:25.537Z,112.13
2019-03-15T01:21:56.029Z,111.50
2019-03-15T01:24:26.578Z,112.20
2019-03-15T01:26:57.317Z,111.83
2019-03-15T01:29:27.714Z,110.00
2019-03-15T01:31:58.136Z,111.37
2019-03-15T01:34:28.705Z,111.90
2019-03-15T01:36:59.048Z,111.80
2019-03-15T01:39:29.411Z,111.70
2019-03-15T01:41:59.792Z,110.20
2019-03-15T01:44:30.161Z,111.53
2019-03-15T01:47:00.700Z,111.07
2019-03-15T01:49:31.136Z,111.40
2019-03-15T01:52:01.824Z,110.53
2019-03-15T01:54:32.340Z,111.37
2019-03-15T01:57:02.865Z,110.57
2019-03-15T01:59:33.362Z,110.10
2019-03-15T02:02:04.881Z,109.83
2019-03-15T02:04:35.374Z,111.30
2019-03-15T02:07:05.956Z,111.60
2019-03-15T02:09:36.606Z,109.17
2019-03-15T02:12:07.075Z,110.00
2019-03-15T02:14:37.530Z,109.60
2019-03-15T02:17:07.895Z,109.90
2019-03-15T02:19:38.325Z,109.87
2019-03-15T02:22:08.869Z,109.27
2019-03-15T02:24:39.421Z,111.40
2019-03-15T02:27:09.881Z,109.73
2019-03-15T02:29:40.443Z,109.43
2019-03-15T02:32:11.200Z,108.97
2019-03-15T02:34:41.614Z,109.23
2019-03-15T02:37:12.467Z,109.70
2019-03-15T02:39:42.991Z,108.57
2019-03-15T02:42:13.611Z,108.53
2019-03-15T02:44:44.121Z,110.53
2019-03-15T02:47:14.836Z,108.00
2019-03-15T02:49:46.276Z,109.93
2019-03-15T02:52:16.661Z,108.93
2019-03-15T02:54:47.214Z,107.77
2019-03-15T02:57:17.702Z,109.57
2019-03-15T02:59:48.178Z,108.23
2019-03-15T03:02:18.789Z,108.13
2019-03-15T03:04:49.539Z,109.07
2019-03-15T03:07:21.058Z,110.57
2019-03-15T03:09:51.907Z,108.27
2019-03-15T03:12:22.428Z,109.20
2019-03-15T03:14:52.879Z,108.50
2019-03-15T03:17:23.424Z,109.07
2019-03-15T03:19:54.160Z,108.80
2019-03-15T03:22:24.918Z,108.40
2019-03-15T03:24:55.431Z,109.87
2019-03-15T03:27:25.963Z,109.27
2019-03-15T03:29:56.457Z,110.33
2019-03-15T03:32:26.985Z,107.83
2019-03-15T03:34:57.467Z,108.33
2019-03-15T03:37:29.104Z,108.97
2019-03-15T03:40:01.513Z,109.07
2019-03-15T03:42:31.710Z,106.63
2019-03-15T03:45:02.796Z,107.10
2019-03-15T03:47:33.372Z,109.77
2019-03-15T03:50:04.373Z,107.27
2019-03-15T03:52:34.999Z,107.47
2019-03-15T03:55:05.674Z,107.13
2019-03-15T03:57:36.585Z,106.93
2019-03-15T04:00:08.429Z,108.37
2019-03-15T04:02:38.888Z,108.17
2019-03-15T04:05:09.650Z,108.23
2019-03-15T04:07:40.136Z,107.83
2019-03-15T04:10:10.974Z,108.80
2019-03-15T04:12:41.461Z,106.83
2019-03-15T04:15:12.021Z,108.87
2019-03-15T04:17:42.390Z,110.03
2019-03-15T04:20:12.980Z,106.47
2019-03-15T04:22:43.356Z,107.30
2019-03-15T04:25:13.749Z,107.77
2019-03-15T04:27:44.359Z,107.77
2019-03-15T04:30:14.851Z,106.03
2019-03-15T04:32:45.431Z,106.03
2019-03-15T04:35:16.056Z,106.73
2019-03-15T04:37:46.761Z,106.47
2019-03-15T04:40:17.142Z,106.90
2019-03-15T04:42:47.840Z,107.60
2019-03-15T04:45:18.377Z,109.30
2019-03-15T04:47:48.969Z,107.20
2019-03-15T04:50:19.457Z,107.77
2019-03-15T04:52:51.792Z,107.63
2019-03-15T04:55:22.739Z,105.87
2019-03-15T04:57:53.456Z,105.73
2019-03-15T05:00:24.194Z,105.70
2019-03-15T05:02:54.732Z,106.60
2019-03-15T05:05:25.160Z,105.70
2019-03-15T05:07:55.697Z,108.53
2019-03-15T05:10:26.191Z,106.13
2019-03-15T05:12:56.796Z,106.37
2019-03-15T05:15:27.356Z,105.83
2019-03-15T05:17:57.830Z,105.83
2019-03-15T05:20:28.413Z,105.30
2019-03-15T05:22:58.882Z,107.20
2019-03-15T05:25:30.013Z,105.43
2019-03-15T05:28:01.225Z,106.07
2019-03-15T05:30:32.472Z,106.23
2019-03-15T05:33:03.007Z,107.87
2019-03-15T05:35:33.692Z,106.27
2019-03-15T05:38:04.694Z,106.13
2019-03-15T05:40:35.198Z,106.33
2019-03-15T05:43:05.682Z,106.13
2019-03-15T05:45:36.160Z,106.10
2019-03-15T05:48:06.583Z,106.30
2019-03-15T05:50:37.137Z,106.23
2019-03-15T05:53:10.718Z,106.27
2019-03-15T05:55:41.241Z,107.53
2019-03-15T05:58:12.102Z,106.63
2019-03-15T06:00:45.386Z,107.40
2019-03-15T06:03:15.825Z,106.23
2019-03-15T06:05:47.458Z,106.50
2019-03-15T06:08:18.037Z,105.40
2019-03-15T06:10:48.495Z,107.03
2019-03-15T06:13:19.276Z,104.97
2019-03-15T06:15:49.751Z,106.13
2019-03-15T06:18:20.379Z,106.53
2019-03-15T06:20:50.863Z,106.50
2019-03-15T06:23:21.483Z,106.37
2019-03-15T06:25:52.281Z,106.60
2019-03-15T06:28:22.753Z,106.33
2019-03-15T06:30:53.473Z,109.03
2019-03-15T06:33:23.926Z,105.30
2019-03-15T06:35:54.411Z,106.40
2019-03-15T06:38:24.810Z,104.53
2019-03-15T06:40:55.382Z,106.00
2019-03-15T06:43:25.951Z,103.07
2019-03-15T06:45:56.748Z,104.20
2019-03-15T06:48:28.309Z,103.13
2019-03-15T06:51:00.062Z,103.17
2019-03-15T06:53:30.528Z,102.60
2019-03-15T06:56:00.915Z,102.33
2019-03-15T06:58:31.434Z,102.10
2019-03-15T07:01:02.011Z,101.37
2019-03-15T07:03:32.476Z,102.00
2019-03-15T07:06:03.102Z,103.23
2019-03-15T07:08:33.741Z,102.43
2019-03-15T07:11:04.957Z,100.07
2019-03-15T07:13:35.547Z,100.87
2019-03-15T07:16:06.262Z,102.57
2019-03-15T07:18:36.898Z,100.80
2019-03-15T07:21:07.465Z,102.37
2019-03-15T07:23:39.119Z,101.63
2019-03-15T07:26:09.712Z,100.87
2019-03-15T07:28:40.218Z,100.17
2019-03-15T07:31:10.830Z,102.73
2019-03-15T07:33:41.446Z,100.33
2019-03-15T07:36:12.301Z,101.90
2019-03-15T07:38:42.973Z,100.63
2019-03-15T07:41:13.682Z,100.77
2019-03-15T07:43:44.217Z,100.67
2019-03-15T07:46:14.942Z,101.13
2019-03-15T07:48:45.512Z,103.10
2019-03-15T07:51:17.163Z,103.27
2019-03-15T07:53:47.732Z,101.10
2019-03-15T07:56:19.912Z,100.90
2019-03-15T07:58:50.442Z,102.80
2019-03-15T08:01:21.366Z,102.60
2019-03-15T08:03:52.149Z,100.57
2019-03-15T08:06:34.097Z,102.93
2019-03-15T08:08:54.885Z,101.53
2019-03-15T08:11:25.413Z,102.23
2019-03-15T08:13:56.247Z,100.80
2019-03-15T08:16:26.854Z,101.13
2019-03-15T08:18:58.465Z,101.60
2019-03-15T08:21:28.934Z,102.53
2019-03-15T08:23:59.418Z,103.13
2019-03-15T08:26:30.446Z,102.40
2019-03-15T08:29:01.045Z,103.27
2019-03-15T08:31:32.644Z,102.43
2019-03-15T08:34:03.119Z,103.90
2019-03-15T08:36:33.844Z,102.27
2019-03-15T08:39:05.157Z,103.23
2019-03-15T08:41:35.714Z,102.97
2019-03-15T08:44:06.273Z,102.40
2019-03-15T08:46:36.746Z,103.87
2019-03-15T08:49:07.276Z,103.00
2019-03-15T08:51:38.149Z,102.13
2019-03-15T08:54:08.825Z,102.70
2019-03-15T08:56:39.425Z,103.20
2019-03-15T08:59:10.145Z,102.83
2019-03-15T09:01:40.846Z,102.67
2019-03-15T09:04:11.717Z,105.43
2019-03-15T09:06:42.363Z,102.37
2019-03-15T09:09:13.201Z,105.53
2019-03-15T09:11:43.782Z,105.27
2019-03-15T09:14:14.214Z,106.57
2019-03-15T09:16:44.863Z,104.67
2019-03-15T09:19:15.499Z,105.33
2019-03-15T09:21:46.134Z,105.37
2019-03-15T09:24:16.681Z,105.00
2019-03-15T09:26:47.246Z,105.50
2019-03-15T09:29:17.806Z,105.77
2019-03-15T09:31:48.604Z,107.27
2019-03-15T09:34:19.299Z,105.93
2019-03-15T09:36:50.622Z,105.00
2019-03-15T09:39:24.029Z,104.73
2019-03-15T09:41:54.550Z,108.67
2019-03-15T09:44:25.071Z,104.63
2019-03-15T09:46:55.808Z,106.90
2019-03-15T09:49:26.376Z,106.00
2019-03-15T09:51:56.993Z,105.50
2019-03-15T09:54:27.650Z,106.67
2019-03-15T09:56:58.261Z,108.10
2019-03-15T09:59:28.919Z,106.80
2019-03-15T10:01:59.475Z,104.70
2019-03-15T10:04:29.993Z,105.13
2019-03-15T10:07:00.454Z,105.63
2019-03-15T10:09:44.756Z,107.37
2019-03-15T10:12:03.173Z,105.87
2019-03-15T10:14:33.830Z,105.53
2019-03-15T10:17:04.449Z,105.37
2019-03-15T10:19:35.033Z,103.23
2019-03-15T10:22:05.541Z,107.17
2019-03-15T10:24:35.993Z,105.60
2019-03-15T10:27:06.584Z,103.90
2019-03-15T10:29:37.092Z,104.57
2019-03-15T10:32:07.593Z,103.00
2019-03-15T10:34:37.959Z,103.70
2019-03-15T10:37:08.768Z,102.63
2019-03-15T10:39:39.339Z,104.70
2019-03-15T10:42:09.804Z,105.30
2019-03-15T10:44:40.348Z,104.40
2019-03-15T10:47:15.837Z,104.97
2019-03-15T10:49:46.760Z,104.03
2019-03-15T10:52:17.392Z,104.35
2019-03-15T10:54:47.856Z,106.63
2019-03-15T10:57:18.297Z,106.70
2019-03-15T10:59:48.693Z,104.23
2019-03-15T11:02:19.157Z,105.75
2019-03-15T11:04:49.729Z,104.58
2019-03-15T11:07:20.241Z,107.33
2019-03-15T11:09:53.612Z,104.97
2019-03-15T11:12:24.389Z,108.70
2019-03-15T11:14:55.063Z,108.42
2019-03-15T11:17:25.611Z,104.72
2019-03-15T11:19:56.439Z,108.17
2019-03-15T11:22:27.112Z,106.83
2019-03-15T11:24:57.798Z,107.10
2019-03-15T11:27:29.355Z,105.47
2019-03-15T11:30:00.437Z,107.20
2019-03-15T11:32:31.037Z,106.35
2019-03-15T11:35:01.653Z,107.55
2019-03-15T11:37:33.163Z,106.43
2019-03-15T11:40:04.026Z,107.55
2019-03-15T11:42:34.568Z,108.37
2019-03-15T11:45:05.633Z,108.33
2019-03-15T11:48:00.673Z,108.53
2019-03-15T11:50:08.967Z,109.97
2019-03-15T11:52:39.529Z,111.13
2019-03-15T11:55:11.587Z,109.23
2019-03-15T11:57:43.256Z,110.67
2019-03-15T12:00:13.895Z,111.83
2019-03-15T12:02:44.643Z,109.03
2019-03-15T12:05:15.516Z,110.57
2019-03-15T12:07:46.104Z,107.93
2019-03-15T12:10:16.673Z,111.00
2019-03-15T12:12:47.315Z,109.93
2019-03-15T12:15:17.819Z,107.83
2019-03-15T12:17:48.349Z,108.87
2019-03-15T12:20:19.130Z,107.53
2019-03-15T12:22:49.650Z,108.10
2019-03-15T12:25:20.369Z,111.83
2019-03-15T12:27:50.820Z,108.63
2019-03-15T12:30:21.491Z,107.17
2019-03-15T12:32:52.568Z,108.93
2019-03-15T12:35:23.116Z,108.00
2019-03-15T12:37:55.749Z,107.43
2019-03-15T12:40:26.638Z,107.40
2019-03-15T12:42:57.771Z,106.73
2019-03-15T12:45:28.407Z,105.80
2019-03-15T12:47:59.244Z,104.93
2019-03-15T12:50:30.118Z,105.50
2019-03-15T12:53:00.657Z,105.20
2019-03-15T12:55:31.209Z,107.27
2019-03-15T12:58:02.768Z,107.90
2019-03-15T13:00:33.309Z,106.83
2019-03-15T13:03:03.840Z,109.55
2019-03-15T13:33:19.243Z,113.10
2019-03-15T13:35:39.939Z,110.70
2019-03-15T13:38:11.777Z,106.40
2019-03-15T13:40:42.900Z,106.03
2019-03-15T13:43:13.850Z,103.90
2019-03-15T13:45:44.596Z,106.40
2019-03-15T13:48:15.512Z,109.07
2019-03-15T13:50:57.626Z,107.47
2019-03-15T13:53:28.456Z,107.37
2019-03-15T13:55:59.029Z,107.47
2019-03-15T14:01:17.988Z,105.47
2019-03-15T14:03:49.248Z,104.57
2019-03-15T14:06:26.062Z,105.57
2019-03-15T14:08:57.069Z,105.77
2019-03-15T14:11:28.481Z,106.73
2019-03-15T14:14:00.662Z,106.90
2019-03-15T14:16:31.346Z,109.45
2019-03-15T14:24:31.367Z,107.27
2019-03-15T14:27:04.073Z,106.90
2019-03-15T14:30:02.555Z,106.67
2019-03-15T14:32:36.825Z,106.80
2019-03-15T14:40:48.155Z,108.70
2019-03-15T14:43:33.675Z,106.40
2019-03-15T14:46:25.196Z,106.00
2019-03-15T14:52:33.738Z,107.60
2019-03-15T14:55:33.014Z,105.17
2019-03-15T14:58:22.691Z,105.77
2019-03-15T15:00:54.034Z,108.78
2019-03-15T15:03:32.569Z,106.53
2019-03-15T15:06:33.692Z,105.10
2019-03-15T15:09:06.092Z,105.07
2019-03-15T15:11:37.300Z,104.27
2019-03-15T15:14:15.942Z,107.10
2019-03-15T15:16:46.513Z,106.57
2019-03-15T15:19:17.494Z,106.83
2019-03-15T15:25:09.277Z,106.97
2019-03-15T15:27:40.926Z,107.73
2019-03-15T15:30:13.264Z,108.87
2019-03-15T15:32:43.933Z,105.00
2019-03-15T15:35:18.702Z,106.97
2019-03-15T15:37:49.350Z,107.93
2019-03-15T15:40:20.209Z,108.50
2019-03-15T15:43:00.611Z,104.37
2019-03-15T15:45:31.532Z,107.73
2019-03-15T15:51:24.485Z,110.40
2019-03-15T15:53:56.816Z,105.57
2019-03-15T15:56:28.276Z,107.60
2019-03-15T15:59:10.173Z,107.97
2019-03-15T16:01:41.489Z,109.47
2019-03-15T16:07:52.560Z,107.77
2019-03-15T16:10:23.132Z,104.60
2019-03-15T16:16:34.991Z,106.27
2019-03-15T16:19:10.033Z,106.70
2019-03-15T16:21:46.261Z,106.00
2019-03-15T16:24:19.851Z,105.60
2019-03-15T16:26:53.639Z,105.33
2019-03-15T16:30:08.126Z,106.17
2019-03-15T16:32:42.365Z,107.43
2019-03-15T16:35:12.948Z,108.40
2019-03-15T16:43:57.890Z,105.27
2019-03-15T16:46:47.909Z,105.17
2019-03-15T16:49:18.848Z,106.07
2019-03-15T16:51:58.274Z,111.00
2019-03-15T16:54:28.885Z,102.05
2019-03-15T16:56:59.575Z,100.63
2019-03-15T16:59:39.361Z,101.40
2019-03-15T17:02:10.089Z,100.70
2019-03-15T17:04:40.539Z,99.23
2019-03-15T17:07:11.398Z,101.87
2019-03-15T17:09:42.305Z,100.90
2019-03-15T17:18:13.983Z,103.03
2019-03-15T17:20:44.765Z,99.83
2019-03-15T17:23:40.786Z,100.33
2019-03-15T17:26:11.602Z,99.57
2019-03-15T17:29:06.055Z,101.20
2019-03-15T17:32:06.778Z,101.83
2019-03-15T17:40:17.904Z,102.13
2019-03-15T17:42:55.479Z,100.90
2019-03-15T17:45:29.380Z,101.33
2019-03-15T17:48:00.081Z,99.67
2019-03-15T17:50:30.673Z,98.97
2019-03-15T17:55:57.757Z,99.03
2019-03-15T17:58:32.148Z,98.70
2019-03-15T18:01:02.982Z,101.00
2019-03-15T18:04:08.123Z,100.53
2019-03-15T18:06:39.167Z,99.00
2019-03-15T18:09:10.982Z,105.77
2019-03-15T18:11:41.783Z,105.97
2019-03-15T18:14:12.332Z,98.20
2019-03-15T18:16:44.719Z,98.07
2019-03-15T18:19:15.287Z,97.30
2019-03-15T18:24:39.075Z,94.07
2019-03-15T18:27:18.157Z,96.50
2019-03-15T18:29:49.197Z,95.87
2019-03-15T18:32:20.235Z,95.70
2019-03-15T18:34:50.958Z,94.40
2019-03-15T18:37:21.500Z,94.10
2019-03-15T18:48:29.929Z,98.60
2019-03-15T19:11:19.354Z,91.20
2019-03-15T19:13:50.068Z,121.50
2019-03-15T19:16:49.669Z,89.40
2019-03-15T19:19:20.225Z,88.93
2019-03-15T19:21:51.205Z,87.47
2019-03-15T19:27:28.813Z,89.87
2019-03-15T19:30:01.079Z,86.73
2019-03-15T19:32:35.749Z,90.70
2019-03-15T19:35:06.503Z,86.73
2019-03-15T19:37:50.234Z,87.93
2019-03-15T19:40:36.259Z,85.07
2019-03-15T19:43:06.846Z,84.40
2019-03-15T19:45:37.750Z,84.43
2019-03-15T19:48:09.823Z,85.90
2019-03-15T19:50:40.462Z,83.47
2019-03-15T19:53:17.609Z,84.17
2019-03-15T19:55:48.679Z,82.97
2019-03-15T19:58:20.027Z,84.27
2019-03-15T20:00:51.918Z,84.87
2019-03-15T20:03:22.842Z,80.30
2019-03-15T20:05:53.368Z,82.57
2019-03-15T20:08:35.136Z,80.50
2019-03-15T20:11:05.568Z,79.50
2019-03-15T20:13:42.371Z,80.83
2019-03-15T20:16:35.102Z,79.90
2019-03-15T20:19:12.431Z,80.63
2019-03-15T20:21:43.687Z,80.93
2019-03-15T20:24:22.505Z,77.50
2019-03-15T20:26:53.307Z,80.97
2019-03-15T20:29:24.184Z,79.83
2019-03-15T20:32:29.345Z,78.87
2019-03-15T20:35:10.944Z,77.73
2019-03-15T20:37:52.431Z,76.80
2019-03-15T20:40:30.845Z,81.73
2019-03-15T20:43:01.715Z,80.63
2019-03-15T20:45:43.256Z,80.93
2019-03-15T20:48:15.761Z,75.90
2019-03-15T20:50:49.671Z,75.20
2019-03-15T20:53:27.237Z,75.50
2019-03-15T20:59:08.005Z,74.83
2019-03-15T21:01:43.305Z,76.57
2019-03-15T21:04:20.336Z,72.87
2019-03-15T21:06:51.219Z,74.67
2019-03-15T21:09:29.898Z,75.03
2019-03-15T21:12:00.647Z,74.87
2019-03-15T21:14:31.525Z,73.00
2019-03-15T21:19:46.008Z,74.07
2019-03-15T21:22:16.965Z,71.07
2019-03-15T21:25:02.028Z,73.43
2019-03-15T21:27:53.825Z,74.10
2019-03-15T21:30:19.035Z,72.50
2019-03-15T21:33:01.487Z,72.33
2019-03-15T21:35:44.978Z,72.27
2019-03-15T21:38:19.119Z,71.27
2019-03-15T21:40:56.798Z,71.77
2019-03-15T21:43:27.703Z,72.60
2019-03-15T21:46:01.386Z,74.37
2019-03-15T21:48:41.690Z,70.77
2019-03-15T21:51:15.582Z,74.93
2019-03-15T21:53:47.024Z,75.53
2019-03-15T21:56:21.901Z,72.47
2019-03-15T21:58:59.681Z,73.10
2019-03-15T22:01:40.318Z,72.60
2019-03-15T22:04:11.318Z,72.33
2019-03-15T22:06:42.167Z,72.00
2019-03-15T22:09:14.584Z,73.30
2019-03-15T22:11:51.418Z,75.40
2019-03-15T22:14:22.129Z,73.93
2019-03-15T22:19:59.705Z,72.00
2019-03-15T22:22:32.268Z,71.00
2019-03-15T22:25:04.389Z,71.57
2019-03-15T22:27:38.068Z,72.87
2019-03-15T22:30:35.049Z,72.43
2019-03-15T22:33:18.167Z,72.97
2019-03-15T22:35:52.284Z,71.73
2019-03-15T22:38:27.092Z,71.73
2019-03-15T22:40:58.332Z,72.20
2019-03-15T22:43:29.084Z,72.53
2019-03-15T22:46:00.184Z,75.70
2019-03-15T22:48:54.675Z,73.40
2019-03-15T22:51:27.000Z,72.53
2019-03-15T22:53:57.724Z,72.83
2019-03-15T22:56:29.445Z,71.40
2019-03-15T22:59:06.955Z,74.50
2019-03-15T23:01:38.549Z,73.03
2019-03-15T23:04:20.229Z,71.50
2019-03-15T23:06:47.326Z,75.90
2019-03-15T23:09:18.208Z,72.70
2019-03-15T23:11:48.924Z,74.17
2019-03-15T23:14:20.002Z,73.10
2019-03-15T23:19:22.356Z,72.90
2019-03-15T23:21:52.836Z,73.13
2019-03-15T23:27:34.775Z,73.43
2019-03-15T23:30:07.198Z,73.97
2019-03-15T23:32:44.747Z,73.07
2019-03-15T23:35:52.910Z,73.40
2019-03-15T23:40:44.621Z,73.50
2019-03-15T23:43:15.119Z,73.13
2019-03-15T23:45:45.769Z,72.93
2019-03-15T23:51:03.680Z,73.67
2019-03-15T23:53:37.548Z,72.20
2019-03-15T23:56:11.053Z,75.03
2019-03-15T23:58:46.592Z,73.60
